createdAt,value
2024-02-23T00:00:27.531Z,97707.88
2024-02-23T00:03:14.139Z,97697.06
2024-02-23T00:06:01.049Z,97719.50
2024-02-23T00:08:47.479Z,97736.81
2024-02-23T00:11:40.702Z,97743.56
2024-02-23T00:14:27.398Z,97745.72
2024-02-23T00:17:13.837Z,97768.97
2024-02-23T00:20:00.547Z,97751.41
2024-02-23T00:22:47.226Z,97743.00
2024-02-23T00:25:33.206Z,97769.19
2024-02-23T00:28:20.983Z,97770.28
2024-02-23T00:31:07.319Z,97761.38
2024-02-23T00:33:53.843Z,97771.91
2024-02-23T00:36:40.838Z,97768.94
2024-02-23T00:39:27.230Z,97778.94
2024-02-23T00:42:13.411Z,97775.97
2024-02-23T00:45:01.105Z,97785.72
2024-02-23T00:47:48.173Z,97791.66
2024-02-23T00:50:34.932Z,97787.31
2024-02-23T00:53:21.643Z,97797.03
2024-02-23T00:56:16.889Z,97803.53
2024-02-23T00:59:03.386Z,97788.34
2024-02-23T01:01:51.094Z,97802.69
2024-02-23T01:04:38.364Z,97812.13
2024-02-23T01:07:24.656Z,97818.38
2024-02-23T01:10:11.384Z,97814.59
2024-02-23T01:12:58.456Z,97810.81
2024-02-23T01:15:44.830Z,97829.44
2024-02-23T01:18:32.916Z,97833.41
2024-02-23T01:21:19.652Z,97857.38
2024-02-23T01:24:07.552Z,97862.56
2024-02-23T01:26:54.535Z,97865.53
2024-02-23T01:29:41.047Z,97893.06
2024-02-23T01:32:27.840Z,97892.47
2024-02-23T01:35:17.233Z,97924.88
2024-02-23T01:38:04.002Z,97947.50
2024-02-23T01:40:50.533Z,97954.75
2024-02-23T01:43:36.846Z,97970.13
2024-02-23T01:46:24.145Z,97960.91
2024-02-23T01:49:11.336Z,98000.75
2024-02-23T01:51:59.228Z,98035.16
2024-02-23T01:54:46.053Z,98024.16
2024-02-23T01:57:45.347Z,98041.78
2024-02-23T02:00:37.024Z,98063.03
2024-02-23T02:03:23.497Z,98071.03
2024-02-23T02:06:11.462Z,98090.03
2024-02-23T02:08:59.565Z,98107.03
2024-02-23T02:11:49.595Z,98135.41
2024-02-23T02:14:36.089Z,98150.13
2024-02-23T02:17:22.319Z,98143.97
2024-02-23T02:20:13.343Z,98157.28
2024-02-23T02:22:59.640Z,98158.38
2024-02-23T02:25:47.324Z,98165.63
2024-02-23T02:28:33.848Z,98165.13
2024-02-23T02:31:19.974Z,98169.38
2024-02-23T02:34:06.492Z,98181.16
2024-02-23T02:36:53.060Z,98185.78
2024-02-23T02:39:39.101Z,98181.06
2024-02-23T02:42:26.975Z,98197.13
2024-02-23T02:45:13.373Z,98195.78
2024-02-23T02:47:59.653Z,98210.66
2024-02-23T02:50:46.069Z,98212.16
2024-02-23T02:53:32.598Z,98243.91
2024-02-23T02:56:18.486Z,98229.38
2024-02-23T02:59:06.198Z,98230.91
2024-02-23T03:01:52.270Z,98234.34
2024-02-23T03:04:38.686Z,98211.47
2024-02-23T03:07:24.721Z,98241.28
2024-02-23T03:10:11.369Z,98242.19
2024-02-23T03:12:57.508Z,98237.09
2024-02-23T03:15:45.116Z,98241.41
2024-02-23T03:18:31.644Z,98258.16
2024-02-23T03:21:17.995Z,98273.53
2024-02-23T03:24:04.870Z,98280.66
2024-02-23T03:26:51.492Z,98287.09
2024-02-23T03:29:37.820Z,98288.84
2024-02-23T03:32:25.336Z,98298.66
2024-02-23T03:35:11.464Z,98288.34
2024-02-23T03:37:57.505Z,98295.25
2024-02-23T03:40:44.026Z,98297.78
2024-02-23T03:43:33.158Z,98299.16
2024-02-23T03:46:21.063Z,98307.22
2024-02-23T03:49:08.947Z,98326.13
2024-02-23T03:51:54.974Z,98324.38
2024-02-23T03:54:41.158Z,98327.28
2024-02-23T03:57:27.398Z,98328.09
2024-02-23T04:00:15.094Z,98343.31
2024-02-23T04:03:01.403Z,98334.28
2024-02-23T04:05:48.988Z,98346.47
2024-02-23T04:08:35.008Z,98360.06
2024-02-23T04:11:21.522Z,98352.59
2024-02-23T04:14:07.632Z,98349.44
2024-02-23T04:16:53.972Z,98358.78
2024-02-23T04:19:40.586Z,98369.44
2024-02-23T04:22:28.361Z,98360.78
2024-02-23T04:25:14.559Z,98373.78
2024-02-23T04:28:00.865Z,98382.56
2024-02-23T04:30:46.898Z,98383.97
2024-02-23T04:33:33.990Z,98393.22
2024-02-23T04:36:21.955Z,98379.41
2024-02-23T04:39:09.657Z,98392.75
2024-02-23T04:41:56.046Z,98398.94
2024-02-23T04:44:43.792Z,98397.88
2024-02-23T04:47:29.957Z,98391.69
2024-02-23T04:50:19.300Z,98402.81
2024-02-23T04:53:05.707Z,98415.81
2024-02-23T04:55:53.309Z,98420.72
2024-02-23T04:58:40.084Z,98417.56
2024-02-23T05:01:26.253Z,98425.28
2024-02-23T05:04:12.575Z,98435.47
2024-02-23T05:06:58.657Z,98439.78
2024-02-23T05:09:45.177Z,98447.41
2024-02-23T05:12:33.400Z,98448.00
2024-02-23T05:15:19.568Z,98440.41
2024-02-23T05:18:07.374Z,98457.84
2024-02-23T05:20:54.970Z,98455.38
2024-02-23T05:23:41.330Z,98455.97
2024-02-23T05:26:27.535Z,98463.56
2024-02-23T05:29:19.250Z,98463.78
2024-02-23T05:32:06.365Z,98470.59
2024-02-23T05:34:54.119Z,98485.22
2024-02-23T05:37:40.609Z,98483.03
2024-02-23T05:40:27.270Z,98491.47
2024-02-23T05:43:13.853Z,98493.06
2024-02-23T05:46:03.799Z,98493.91
2024-02-23T05:48:50.364Z,98496.38
2024-02-23T05:51:36.663Z,98499.78
2024-02-23T05:54:22.735Z,98498.25
2024-02-23T05:57:09.523Z,98499.16
2024-02-23T05:59:56.654Z,98497.16
2024-02-23T06:02:44.318Z,98508.78
2024-02-23T06:05:30.848Z,98498.47
2024-02-23T06:08:17.625Z,98504.91
2024-02-23T06:11:05.592Z,98510.28
2024-02-23T06:13:52.528Z,98514.16
2024-02-23T06:16:38.873Z,98508.53
2024-02-23T06:19:26.365Z,98520.34
2024-02-23T06:22:13.324Z,98522.47
2024-02-23T06:24:59.999Z,98533.25
2024-02-23T06:27:46.362Z,98527.75
2024-02-23T06:30:32.662Z,98534.53
2024-02-23T06:33:20.301Z,98544.03
2024-02-23T06:36:08.769Z,98545.31
2024-02-23T06:38:55.240Z,98553.47
2024-02-23T06:41:41.406Z,98553.44
2024-02-23T06:44:27.738Z,98560.94
2024-02-23T06:47:14.193Z,98560.47
2024-02-23T06:50:00.650Z,98569.97
2024-02-23T06:52:49.407Z,98572.22
2024-02-23T06:55:37.018Z,98585.34
2024-02-23T06:58:23.534Z,98588.81
2024-02-23T07:01:13.743Z,98589.56
2024-02-23T07:03:59.989Z,98594.94
2024-02-23T07:06:49.203Z,98599.50
2024-02-23T07:09:36.971Z,98600.72
2024-02-23T07:12:23.561Z,98607.59
2024-02-23T07:15:10.227Z,98605.34
2024-02-23T07:17:56.763Z,98615.22
2024-02-23T07:20:43.303Z,98619.31
2024-02-23T07:23:29.906Z,98620.03
2024-02-23T07:26:17.994Z,98625.53
2024-02-23T07:29:05.102Z,98623.47
2024-02-23T07:31:51.417Z,98639.97
2024-02-23T07:34:37.475Z,98628.84
2024-02-23T07:37:23.949Z,98639.34
2024-02-23T07:40:10.801Z,98641.09
2024-02-23T07:42:58.578Z,98638.88
2024-02-23T07:45:45.529Z,98635.97
2024-02-23T07:48:31.836Z,98642.75
2024-02-23T07:51:18.386Z,98645.16
2024-02-23T07:54:05.166Z,98653.66
2024-02-23T07:56:51.291Z,98645.59
2024-02-23T07:59:38.855Z,98651.94
2024-02-23T08:02:25.695Z,98662.59
2024-02-23T08:05:12.108Z,98671.88
2024-02-23T08:08:00.165Z,98679.41
2024-02-23T08:10:46.649Z,98686.78
2024-02-23T08:13:35.301Z,98694.63
2024-02-23T08:16:22.829Z,98695.91
2024-02-23T08:19:09.408Z,98699.13
2024-02-23T08:21:55.674Z,98697.66
2024-02-23T08:24:41.923Z,98712.31
2024-02-23T08:27:29.622Z,98713.16
2024-02-23T08:30:16.585Z,98715.84
2024-02-23T08:33:04.462Z,98707.06
2024-02-23T08:35:50.571Z,98707.81
2024-02-23T08:38:37.663Z,98710.91
2024-02-23T08:41:23.937Z,98698.84
2024-02-23T08:44:10.144Z,98699.16
2024-02-23T08:46:57.655Z,98693.59
2024-02-23T08:49:45.389Z,98691.16
2024-02-23T08:52:31.654Z,98698.69
2024-02-23T08:55:18.810Z,98709.03
2024-02-23T08:58:06.944Z,98710.31
2024-02-23T09:00:53.124Z,98711.13
2024-02-23T09:03:39.106Z,98706.94
2024-02-23T09:06:27.877Z,98701.53
2024-02-23T09:09:14.150Z,98700.81
2024-02-23T09:12:00.703Z,98701.97
2024-02-23T09:14:47.164Z,98708.66
2024-02-23T09:17:33.838Z,98714.91
2024-02-23T09:20:20.522Z,98726.25
2024-02-23T09:23:08.354Z,98714.53
2024-02-23T09:25:54.850Z,98721.47
2024-02-23T09:28:42.614Z,98726.97
2024-02-23T09:31:29.284Z,98721.19
2024-02-23T09:34:16.370Z,98735.41
2024-02-23T09:37:02.986Z,98729.28
2024-02-23T09:39:50.463Z,98732.00
2024-02-23T09:42:39.334Z,98734.47
2024-02-23T09:45:26.673Z,98737.91
2024-02-23T09:48:14.694Z,98744.53
2024-02-23T09:51:01.743Z,98748.44
2024-02-23T09:53:51.248Z,98759.47
2024-02-23T09:56:40.496Z,98760.53
2024-02-23T09:59:30.652Z,98756.34
2024-02-23T10:02:19.183Z,98763.41
2024-02-23T10:05:06.101Z,98759.97
2024-02-23T10:07:55.159Z,98748.75
2024-02-23T10:10:42.580Z,98757.75
2024-02-23T10:13:32.985Z,98757.84
2024-02-23T10:16:21.362Z,98746.34
2024-02-23T10:19:07.643Z,98757.38
2024-02-23T10:21:54.780Z,98757.84
2024-02-23T10:24:40.836Z,98763.84
2024-02-23T10:27:27.409Z,98753.84
2024-02-23T10:30:16.073Z,98745.13
2024-02-23T10:33:02.430Z,98756.44
2024-02-23T10:35:49.521Z,98767.25
2024-02-23T10:38:41.918Z,98764.41
2024-02-23T10:41:29.656Z,98749.25
2024-02-23T10:44:18.595Z,98748.25
2024-02-23T10:47:06.975Z,98760.19
2024-02-23T10:49:54.063Z,98760.22
2024-02-23T10:52:41.342Z,98757.81
2024-02-23T10:55:29.831Z,98751.75
2024-02-23T10:58:17.180Z,98744.50
2024-02-23T11:01:05.804Z,98748.19
2024-02-23T11:03:54.270Z,98745.13
2024-02-23T11:06:40.908Z,98744.69
2024-02-23T11:09:28.963Z,98743.84
2024-02-23T11:12:25.914Z,98750.34
2024-02-23T11:15:28.422Z,98753.00
2024-02-23T11:18:24.837Z,98736.09
2024-02-23T11:21:12.867Z,98736.25
2024-02-23T11:24:05.016Z,98740.53
2024-02-23T11:26:51.567Z,98732.59
2024-02-23T11:29:40.958Z,98733.28
2024-02-23T11:32:39.512Z,98730.53
2024-02-23T11:35:27.815Z,98732.78
2024-02-23T11:38:15.894Z,98734.25
2024-02-23T11:41:02.333Z,98718.00
2024-02-23T11:43:49.582Z,98731.72
2024-02-23T11:46:36.225Z,98727.81
2024-02-23T11:49:22.243Z,98727.41
2024-02-23T11:52:08.730Z,98727.94
2024-02-23T11:54:57.495Z,98718.47
2024-02-23T11:57:47.836Z,98718.41
2024-02-23T12:00:36.510Z,98732.69
2024-02-23T12:03:22.457Z,98729.63
2024-02-23T12:06:10.692Z,98720.50
2024-02-23T12:08:57.424Z,98732.97
2024-02-23T12:11:45.351Z,98723.25
2024-02-23T12:14:31.639Z,98721.63
2024-02-23T12:17:17.776Z,98723.72
2024-02-23T12:20:05.147Z,98724.47
2024-02-23T12:22:51.376Z,98725.69
2024-02-23T12:25:38.774Z,98736.22
2024-02-23T12:28:26.864Z,98722.03
2024-02-23T12:31:13.648Z,98732.13
2024-02-23T12:34:00.581Z,98726.63
2024-02-23T12:36:48.274Z,98731.94
2024-02-23T12:39:34.585Z,98734.34
2024-02-23T12:42:20.920Z,98729.38
2024-02-23T12:45:09.284Z,98740.47
2024-02-23T12:47:57.855Z,98734.16
2024-02-23T12:50:44.105Z,98730.06
2024-02-23T12:53:37.219Z,98744.81
2024-02-23T12:56:23.522Z,98737.25
2024-02-23T12:59:10.441Z,98759.97
2024-02-23T13:01:58.439Z,98753.38
2024-02-23T13:04:50.928Z,98757.25
2024-02-23T13:07:39.701Z,98753.88
2024-02-23T13:10:26.168Z,98763.94
2024-02-23T13:13:13.823Z,98746.00
2024-02-23T13:15:59.948Z,98753.66
2024-02-23T13:18:48.211Z,98757.31
2024-02-23T13:21:34.937Z,98758.91
2024-02-23T13:24:21.754Z,98759.97
2024-02-23T13:27:08.171Z,98764.81
2024-02-23T13:29:54.672Z,98757.97
2024-02-23T13:32:41.298Z,98764.75
2024-02-23T13:35:29.592Z,98770.66
2024-02-23T13:38:16.162Z,98760.19
2024-02-23T13:41:02.408Z,98765.47
2024-02-23T13:43:48.657Z,98773.06
2024-02-23T13:46:39.905Z,98773.31
2024-02-23T13:49:26.913Z,98768.59
2024-02-23T13:52:14.567Z,98778.91
2024-02-23T13:55:02.275Z,98779.97
2024-02-23T13:57:49.281Z,98775.78
2024-02-23T14:00:35.734Z,98784.00
2024-02-23T14:03:24.258Z,98782.47
2024-02-23T14:06:11.353Z,98778.28
2024-02-23T14:08:58.828Z,98785.41
2024-02-23T14:11:46.249Z,98789.91
2024-02-23T14:14:32.505Z,98787.88
2024-02-23T14:17:18.579Z,98782.22
2024-02-23T14:20:05.865Z,98779.91
2024-02-23T14:22:53.888Z,98787.53
2024-02-23T14:25:41.590Z,98796.00
2024-02-23T14:28:27.854Z,98787.63
2024-02-23T14:31:14.224Z,98789.09
2024-02-23T14:34:00.561Z,98783.44
2024-02-23T14:36:46.590Z,98787.84
2024-02-23T14:39:32.991Z,98790.41
2024-02-23T14:42:20.582Z,98787.72
2024-02-23T14:45:08.399Z,98789.91
2024-02-23T14:47:55.364Z,98798.94
2024-02-23T14:50:41.509Z,98791.72
2024-02-23T14:53:29.470Z,98795.00
2024-02-23T14:56:16.080Z,98787.13
2024-02-23T14:59:05.519Z,98797.94
2024-02-23T15:01:55.083Z,98804.44
2024-02-23T15:04:41.744Z,98799.75
2024-02-23T15:07:29.457Z,98808.50
2024-02-23T15:10:16.116Z,98805.50
2024-02-23T15:13:02.538Z,98814.50
2024-02-23T15:15:50.013Z,98811.00
2024-02-23T15:18:36.755Z,98810.44
2024-02-23T15:21:23.487Z,98808.44
2024-02-23T15:24:09.662Z,98808.19
2024-02-23T15:26:55.661Z,98808.13
2024-02-23T15:29:41.876Z,98808.06
2024-02-23T15:32:29.878Z,98814.03
2024-02-23T15:35:16.941Z,98805.00
2024-02-23T15:38:03.281Z,98804.44
2024-02-23T15:40:49.575Z,98805.72
2024-02-23T15:43:35.693Z,98809.75
2024-02-23T15:46:22.205Z,98813.00
2024-02-23T15:49:21.615Z,98811.06
2024-02-23T15:52:16.337Z,98828.25
2024-02-23T15:55:02.830Z,98821.94
2024-02-23T15:57:49.335Z,98811.91
2024-02-23T16:00:35.419Z,98808.06
2024-02-23T16:03:22.179Z,98814.75
2024-02-23T16:06:09.722Z,98814.16
2024-02-23T16:08:55.745Z,98828.41
2024-02-23T16:11:46.561Z,98830.63
2024-02-23T16:14:32.970Z,98832.91
2024-02-23T16:17:19.244Z,98830.44
2024-02-23T16:20:06.645Z,98833.59
2024-02-23T16:22:54.421Z,98832.53
2024-02-23T16:25:40.748Z,98839.00
2024-02-23T16:28:26.749Z,98835.16
2024-02-23T16:31:12.770Z,98836.00
2024-02-23T16:33:59.150Z,98843.63
2024-02-23T16:36:46.235Z,98840.53
2024-02-23T16:39:33.813Z,98844.41
2024-02-23T16:42:20.228Z,98850.97
2024-02-23T16:45:07.214Z,98853.72
2024-02-23T16:47:53.750Z,98854.31
2024-02-23T16:50:45.607Z,98869.13
2024-02-23T16:53:33.582Z,98856.91
2024-02-23T16:56:21.529Z,98864.00
2024-02-23T16:59:08.397Z,98878.81
2024-02-23T17:01:56.537Z,98878.81
2024-02-23T17:04:43.922Z,98885.66
2024-02-23T17:07:30.395Z,98889.75
2024-02-23T17:10:17.657Z,98891.16
2024-02-23T17:13:05.454Z,98895.41
2024-02-23T17:15:51.553Z,98895.41
2024-02-23T17:18:38.193Z,98897.03
2024-02-23T17:21:25.572Z,98902.66
2024-02-23T17:24:11.896Z,98910.78
2024-02-23T17:26:58.448Z,98925.16
2024-02-23T17:29:46.247Z,98927.94
2024-02-23T17:32:32.760Z,98922.31
2024-02-23T17:35:19.393Z,98916.91
2024-02-23T17:38:06.087Z,98918.44
2024-02-23T17:40:54.500Z,98914.22
2024-02-23T17:43:40.924Z,98925.59
2024-02-23T17:46:28.774Z,98915.38
2024-02-23T17:49:15.070Z,98920.78
2024-02-23T17:52:01.154Z,98928.78
2024-02-23T17:54:47.371Z,98929.34
2024-02-23T17:57:33.637Z,98931.25
2024-02-23T18:00:20.714Z,98931.72
2024-02-23T18:03:08.649Z,98931.84
2024-02-23T18:05:54.846Z,98932.91
2024-02-23T18:08:41.113Z,98930.19
2024-02-23T18:11:27.726Z,98929.34
2024-02-23T18:14:15.070Z,98933.47
2024-02-23T18:17:01.534Z,98927.84
2024-02-23T18:19:49.221Z,98937.25
2024-02-23T18:22:35.612Z,98942.41
2024-02-23T18:25:21.886Z,98949.22
2024-02-23T18:28:08.097Z,98953.22
2024-02-23T18:30:54.444Z,98960.72
2024-02-23T18:33:41.847Z,98951.69
2024-02-23T18:36:29.763Z,98954.84
2024-02-23T18:39:15.816Z,98958.63
2024-02-23T18:42:01.959Z,98964.13
2024-02-23T18:44:49.474Z,98963.66
2024-02-23T18:47:35.659Z,98960.25
2024-02-23T18:50:21.992Z,98970.47
2024-02-23T18:53:09.677Z,98965.66
2024-02-23T18:55:55.672Z,98973.03
2024-02-23T18:58:42.164Z,98963.06
2024-02-23T19:01:28.634Z,98967.63
2024-02-23T19:04:14.928Z,98974.78
2024-02-23T19:07:01.797Z,98972.56
2024-02-23T19:09:49.888Z,98973.47
2024-02-23T19:12:37.902Z,98969.97
2024-02-23T19:15:24.231Z,98970.97
2024-02-23T19:18:10.940Z,98973.56
2024-02-23T19:20:57.012Z,98966.16
2024-02-23T19:23:44.149Z,98963.69
2024-02-23T19:26:31.790Z,98961.13
2024-02-23T19:29:20.939Z,98959.56
2024-02-23T19:32:07.528Z,98971.56
2024-02-23T19:34:53.952Z,98971.69
2024-02-23T19:37:40.633Z,98969.34
2024-02-23T19:40:26.795Z,98974.75
2024-02-23T19:43:14.212Z,98967.81
2024-02-23T19:46:07.709Z,98964.63
2024-02-23T19:48:59.615Z,98973.06
2024-02-23T19:51:45.907Z,98979.06
2024-02-23T19:54:32.055Z,98978.34
2024-02-23T19:57:18.183Z,98987.63
2024-02-23T20:00:07.712Z,98986.22
2024-02-23T20:03:04.144Z,98994.44
2024-02-23T20:06:00.098Z,98997.28
2024-02-23T20:08:55.321Z,99002.91
2024-02-23T20:11:52.854Z,99003.59
2024-02-23T20:14:51.192Z,99004.41
2024-02-23T20:17:53.445Z,99007.94
2024-02-23T20:20:51.690Z,99011.38
2024-02-23T20:23:47.372Z,99008.44
2024-02-23T20:26:42.837Z,99018.53
2024-02-23T20:29:39.216Z,99017.34
2024-02-23T20:32:33.550Z,99012.06
2024-02-23T20:35:33.836Z,99014.75
2024-02-23T20:38:31.821Z,99012.66
2024-02-23T20:41:26.655Z,99016.13
2024-02-23T20:44:21.501Z,99011.44
2024-02-23T20:47:16.513Z,99010.38
2024-02-23T20:50:15.930Z,99011.75
2024-02-23T20:53:17.345Z,99020.91
2024-02-23T20:56:13.949Z,99008.06
2024-02-23T20:59:09.970Z,99016.72
2024-02-23T21:02:08.576Z,99009.91
2024-02-23T21:05:02.827Z,99011.16
2024-02-23T21:07:58.158Z,99018.22
2024-02-23T21:10:59.596Z,99021.00
2024-02-23T21:13:55.182Z,99018.97
2024-02-23T21:16:52.541Z,99024.22
2024-02-23T21:19:46.745Z,99026.69
2024-02-23T21:22:42.016Z,99016.72
2024-02-23T21:25:38.544Z,99021.38
2024-02-23T21:28:38.465Z,99022.22
2024-02-23T21:31:33.828Z,99008.97
2024-02-23T21:34:29.928Z,99010.47
2024-02-23T21:37:24.863Z,99011.66
2024-02-23T21:40:22.762Z,99004.84
2024-02-23T21:43:21.384Z,98998.59
2024-02-23T21:46:18.744Z,98999.78
2024-02-23T21:49:13.453Z,98997.09
2024-02-23T21:52:09.729Z,98998.16
2024-02-23T21:55:04.681Z,99002.50
2024-02-23T21:57:59.582Z,98995.28
2024-02-23T22:00:53.726Z,98997.59
2024-02-23T22:04:02.118Z,98991.69
2024-02-23T22:07:00.556Z,98993.09
2024-02-23T22:10:00.534Z,98995.22
2024-02-23T22:13:03.860Z,99007.69
2024-02-23T22:16:04.219Z,99002.47
2024-02-23T22:19:04.933Z,98984.72
2024-02-23T22:21:59.227Z,98990.25
2024-02-23T22:25:00.180Z,98996.34
2024-02-23T22:27:57.824Z,98986.59
2024-02-23T22:30:52.235Z,98987.44
2024-02-23T22:33:46.630Z,98986.59
2024-02-23T22:36:43.678Z,98983.44
2024-02-23T22:39:39.381Z,98990.94
2024-02-23T22:42:38.200Z,99000.06
2024-02-23T22:45:33.357Z,98993.88
2024-02-23T22:48:29.043Z,99001.34
2024-02-23T22:51:31.047Z,99002.19
2024-02-23T22:54:27.993Z,98990.13
2024-02-23T22:57:22.990Z,99000.53
2024-02-23T23:00:21.309Z,99000.53
2024-02-23T23:03:19.772Z,99000.22
2024-02-23T23:06:24.089Z,99001.09
2024-02-23T23:09:22.276Z,99008.13
2024-02-23T23:12:18.827Z,99010.31
2024-02-23T23:15:14.962Z,99005.50
2024-02-23T23:18:11.803Z,99014.69
2024-02-23T23:21:06.532Z,99016.50
2024-02-23T23:24:05.235Z,99020.88
2024-02-23T23:27:00.384Z,99020.25
2024-02-23T23:29:58.183Z,99033.25
2024-02-23T23:32:52.619Z,99028.50
2024-02-23T23:35:48.017Z,99036.41
2024-02-23T23:38:45.621Z,99034.91
2024-02-23T23:41:43.415Z,99043.16
2024-02-23T23:44:38.241Z,99043.41
2024-02-23T23:47:35.139Z,99047.97
2024-02-23T23:50:29.898Z,99041.75
2024-02-23T23:53:25.566Z,99046.44
2024-02-23T23:56:21.552Z,99037.44
2024-02-23T23:59:18.772Z,99039.72
